createdAt,value
2023-01-12T00:00:17.829Z,36.42
2023-01-12T00:05:39.579Z,36.62
2023-01-12T00:11:02.270Z,36.38
2023-01-12T00:16:41.009Z,36.46
2023-01-12T00:22:08.974Z,36.91
2023-01-12T00:27:30.705Z,36.80
2023-01-12T00:32:52.415Z,36.71
2023-01-12T00:38:14.307Z,36.87
2023-01-12T00:43:54.876Z,36.39
2023-01-12T00:49:16.839Z,36.68
2023-01-12T00:54:39.078Z,36.88
2023-01-12T01:00:00.950Z,36.63
2023-01-12T01:05:22.946Z,36.62
2023-01-12T01:10:45.774Z,36.84
2023-01-12T01:16:08.771Z,37.06
2023-01-12T01:21:30.651Z,36.87
2023-01-12T01:26:52.492Z,37.01
2023-01-12T01:32:14.256Z,36.56
2023-01-12T01:37:35.947Z,36.61
2023-01-12T01:42:57.936Z,36.86
2023-01-12T01:48:19.665Z,36.93
2023-01-12T01:53:44.077Z,36.87
2023-01-12T01:59:12.799Z,37.12
2023-01-12T02:04:35.662Z,37.04
2023-01-12T02:09:57.395Z,36.82
2023-01-12T02:15:37.819Z,36.70
2023-01-12T02:21:17.577Z,37.08
2023-01-12T02:27:00.984Z,36.69
2023-01-12T02:32:37.693Z,36.87
2023-01-12T02:38:14.385Z,37.08
2023-01-12T02:43:38.354Z,37.14
2023-01-12T02:49:08.246Z,36.99
2023-01-12T02:54:33.224Z,37.00
2023-01-12T02:59:56.690Z,37.13
2023-01-12T03:05:18.580Z,37.12
2023-01-12T03:10:51.176Z,36.76
2023-01-12T03:16:15.786Z,36.92
2023-01-12T03:21:47.521Z,36.69
2023-01-12T03:27:22.058Z,37.13
2023-01-12T03:32:44.107Z,36.89
2023-01-12T03:38:33.836Z,36.79
2023-01-12T03:44:02.176Z,36.98
2023-01-12T03:49:32.683Z,36.89
2023-01-12T03:54:58.033Z,36.86
2023-01-12T04:00:21.658Z,37.24
2023-01-12T04:05:45.039Z,36.98
2023-01-12T04:11:26.689Z,37.11
2023-01-12T04:16:48.415Z,37.30
2023-01-12T04:22:33.999Z,37.08
2023-01-12T04:28:04.669Z,37.17
2023-01-12T04:33:26.378Z,36.99
2023-01-12T04:38:48.142Z,37.14
2023-01-12T04:44:09.944Z,37.25
2023-01-12T04:49:31.595Z,36.97
2023-01-12T04:54:53.995Z,37.32
2023-01-12T05:00:17.307Z,37.23
2023-01-12T05:05:39.054Z,37.08
2023-01-12T05:11:01.528Z,37.50
2023-01-12T05:16:23.620Z,37.08
2023-01-12T05:21:45.370Z,37.24
2023-01-12T05:27:07.125Z,37.25
2023-01-12T05:32:28.911Z,37.23
2023-01-12T05:37:50.623Z,37.45
2023-01-12T05:43:33.893Z,37.16
2023-01-12T05:48:57.022Z,37.33
2023-01-12T05:54:18.923Z,37.42
2023-01-12T05:59:40.697Z,37.58
2023-01-12T06:05:02.443Z,37.61
2023-01-12T06:10:24.200Z,37.31
2023-01-12T06:15:45.945Z,37.68
2023-01-12T06:21:09.408Z,37.24
2023-01-12T06:26:31.308Z,37.27
2023-01-12T06:31:53.088Z,37.46
2023-01-12T06:37:15.757Z,37.28
2023-01-12T06:42:42.204Z,37.64
2023-01-12T06:48:04.396Z,37.78
2023-01-12T06:53:26.203Z,37.57
2023-01-12T06:58:48.205Z,37.82
2023-01-12T07:04:10.012Z,37.67
2023-01-12T07:09:31.740Z,37.82
2023-01-12T07:14:53.455Z,37.92
2023-01-12T07:20:15.361Z,37.51
2023-01-12T07:25:37.080Z,37.88
2023-01-12T07:31:03.244Z,37.66
2023-01-12T07:36:26.135Z,37.82
2023-01-12T07:42:06.205Z,37.88
2023-01-12T07:47:28.210Z,38.10
2023-01-12T07:52:50.068Z,38.21
2023-01-12T07:58:11.999Z,38.35
2023-01-12T08:03:33.784Z,38.34
2023-01-12T08:08:55.891Z,37.99
2023-01-12T08:14:28.469Z,38.00
2023-01-12T08:20:00.264Z,38.09
2023-01-12T08:25:32.289Z,38.23
2023-01-12T08:30:54.370Z,38.08
2023-01-12T08:36:17.002Z,38.25
2023-01-12T08:41:40.681Z,38.60
2023-01-12T08:47:04.130Z,38.21
2023-01-12T08:52:29.553Z,38.17
2023-01-12T08:57:51.290Z,38.18
2023-01-12T09:03:13.023Z,38.19
2023-01-12T09:08:35.102Z,38.40
2023-01-12T09:13:58.922Z,38.53
2023-01-12T09:19:20.767Z,38.65
2023-01-12T09:24:42.504Z,38.57
2023-01-12T09:30:06.706Z,38.30
2023-01-12T09:35:28.441Z,38.34
2023-01-12T09:40:50.191Z,38.38
2023-01-12T09:46:55.602Z,38.57
2023-01-12T09:52:17.428Z,38.86
2023-01-12T09:57:42.050Z,38.92
2023-01-12T10:03:03.764Z,39.16
2023-01-12T10:08:48.676Z,38.79
2023-01-12T10:14:38.214Z,39.02
2023-01-12T10:20:08.877Z,39.40
2023-01-12T10:25:45.571Z,39.04
2023-01-12T10:31:15.182Z,39.35
2023-01-12T10:36:49.835Z,39.33
2023-01-12T10:42:43.819Z,39.51
2023-01-12T10:48:19.344Z,39.63
2023-01-12T10:54:10.062Z,39.58
2023-01-12T10:59:38.552Z,39.42
2023-01-12T11:05:00.265Z,39.22
2023-01-12T11:10:28.035Z,39.63
2023-01-12T11:16:17.108Z,39.69
2023-01-12T11:21:43.468Z,39.36
2023-01-12T11:27:15.994Z,39.79
2023-01-12T11:32:46.553Z,39.73
2023-01-12T11:38:17.239Z,39.69
2023-01-12T11:44:03.182Z,39.68
2023-01-12T11:49:37.464Z,39.65
2023-01-12T11:54:59.351Z,39.80
2023-01-12T12:00:23.896Z,39.47
2023-01-12T12:06:04.167Z,39.64
2023-01-12T12:11:39.353Z,39.83
2023-01-12T12:17:11.337Z,39.82
2023-01-12T12:23:15.792Z,39.87
2023-01-12T12:29:08.972Z,39.86
2023-01-12T12:34:55.122Z,39.98
2023-01-12T12:40:30.114Z,39.77
2023-01-12T12:46:25.487Z,40.01
2023-01-12T12:51:47.456Z,39.97
2023-01-12T12:57:09.586Z,40.07
2023-01-12T13:02:38.221Z,39.84
2023-01-12T13:08:00.734Z,39.99
2023-01-12T13:13:24.304Z,39.83
2023-01-12T13:18:48.796Z,39.81
2023-01-12T13:24:10.508Z,40.17
2023-01-12T13:29:38.525Z,40.11
2023-01-12T13:35:00.345Z,39.92
2023-01-12T13:40:28.522Z,40.02
2023-01-12T13:46:00.754Z,40.14
2023-01-12T13:51:47.964Z,40.23
2023-01-12T13:57:20.523Z,39.88
2023-01-12T14:02:42.449Z,40.11
2023-01-12T14:08:19.436Z,40.09
2023-01-12T14:13:51.131Z,40.03
2023-01-12T14:19:27.075Z,39.99
2023-01-12T14:24:48.808Z,40.36
2023-01-12T14:30:13.445Z,40.30
2023-01-12T14:35:35.195Z,40.01
2023-01-12T14:41:02.818Z,40.41
2023-01-12T14:46:30.440Z,40.13
2023-01-12T14:51:56.335Z,40.23
2023-01-12T14:57:20.773Z,40.39
2023-01-12T15:02:42.781Z,40.38
2023-01-12T15:08:07.277Z,40.23
2023-01-12T15:13:30.707Z,40.37
2023-01-12T15:19:11.244Z,40.23
2023-01-12T15:24:54.448Z,40.72
2023-01-12T15:30:16.887Z,40.30
2023-01-12T15:35:44.238Z,40.73
2023-01-12T15:41:06.467Z,40.57
2023-01-12T15:46:28.195Z,40.69
2023-01-12T15:51:51.201Z,40.46
2023-01-12T15:57:15.225Z,40.60
2023-01-12T16:02:37.991Z,40.33
2023-01-12T16:07:59.687Z,40.48
2023-01-12T16:13:21.393Z,40.71
2023-01-12T16:18:43.967Z,40.38
2023-01-12T16:24:07.551Z,40.76
2023-01-12T16:29:29.438Z,40.85
2023-01-12T16:34:51.461Z,40.76
2023-01-12T16:40:13.338Z,40.58
2023-01-12T16:45:35.118Z,40.94
2023-01-12T16:50:56.891Z,40.80
2023-01-12T16:56:18.730Z,40.62
2023-01-12T17:01:40.609Z,40.85
2023-01-12T17:07:03.058Z,40.71
2023-01-12T17:12:24.841Z,40.74
2023-01-12T17:17:46.679Z,40.60
2023-01-12T17:23:08.516Z,41.00
2023-01-12T17:28:30.717Z,40.99
2023-01-12T17:33:53.273Z,41.11
2023-01-12T17:39:15.472Z,41.31
2023-01-12T17:44:37.200Z,41.36
2023-01-12T17:49:58.971Z,41.59
2023-01-12T17:55:20.744Z,42.16
2023-01-12T18:00:42.512Z,42.55
2023-01-12T18:06:09.021Z,42.16
2023-01-12T18:11:34.200Z,41.57
2023-01-12T18:16:55.983Z,41.40
2023-01-12T18:22:17.789Z,40.59
2023-01-12T18:27:39.557Z,40.16
2023-01-12T18:33:01.352Z,39.93
2023-01-12T18:38:27.422Z,39.25
2023-01-12T18:43:51.363Z,38.81
2023-01-12T18:49:13.073Z,38.95
2023-01-12T18:54:48.207Z,38.42
2023-01-12T19:00:16.996Z,38.49
2023-01-12T19:05:59.937Z,38.60
2023-01-12T19:11:21.734Z,38.65
2023-01-12T19:17:01.768Z,38.98
2023-01-12T19:22:43.494Z,39.52
2023-01-12T19:28:24.448Z,39.71
2023-01-12T19:33:46.175Z,39.37
2023-01-12T19:39:09.754Z,39.40
2023-01-12T19:44:31.538Z,39.38
2023-01-12T19:49:53.229Z,39.81
2023-01-12T19:55:20.192Z,39.69
2023-01-12T20:00:45.403Z,39.63
2023-01-12T20:06:07.744Z,40.04
2023-01-12T20:11:29.972Z,39.96
2023-01-12T20:16:51.692Z,40.09
2023-01-12T20:22:13.402Z,39.97
2023-01-12T20:27:36.446Z,40.39
2023-01-12T20:32:59.383Z,39.87
2023-01-12T20:38:22.794Z,39.99
2023-01-12T20:43:44.802Z,39.94
2023-01-12T20:49:06.612Z,39.67
2023-01-12T20:54:28.301Z,39.89
2023-01-12T20:59:50.455Z,39.91
2023-01-12T21:05:12.144Z,39.99
2023-01-12T21:10:33.817Z,39.51
2023-01-12T21:16:02.918Z,39.67
2023-01-12T21:21:24.648Z,39.71
2023-01-12T21:26:46.711Z,39.98
2023-01-12T21:32:08.494Z,39.72
2023-01-12T21:37:30.988Z,40.23
2023-01-12T21:43:11.992Z,40.10
2023-01-12T21:48:33.827Z,40.26
2023-01-12T21:53:56.832Z,40.45
2023-01-12T21:59:18.866Z,40.84
2023-01-12T22:04:40.574Z,40.74
2023-01-12T22:10:20.123Z,40.52
2023-01-12T22:15:42.599Z,40.69
2023-01-12T22:21:09.533Z,40.90
2023-01-12T22:26:32.779Z,40.86
2023-01-12T22:31:54.571Z,41.15
2023-01-12T22:37:16.284Z,40.83
2023-01-12T22:42:57.211Z,41.37
2023-01-12T22:48:19.256Z,41.09
2023-01-12T22:53:41.000Z,41.41
2023-01-12T22:59:03.379Z,41.09
2023-01-12T23:04:25.131Z,41.11
2023-01-12T23:09:46.838Z,41.14
2023-01-12T23:15:08.862Z,41.04
2023-01-12T23:20:32.313Z,41.11
2023-01-12T23:25:54.105Z,41.19
2023-01-12T23:31:19.362Z,41.20
2023-01-12T23:36:41.581Z,41.13
2023-01-12T23:42:03.731Z,41.42
2023-01-12T23:47:25.572Z,41.32
2023-01-12T23:52:50.627Z,41.05
2023-01-12T23:58:12.376Z,40.87
